sensor_id;sensor_type;location;lat;lon;timestamp;P1;durP1;ratioP1;P2;durP2;ratioP2
9392;SDS011;4736;52.508;13.422;2022-12-24T00:02:05;11.23;;;10.27;;
9392;SDS011;4736;52.508;13.422;2022-12-24T00:05:09;11.00;;;10.07;;
9392;SDS011;4736;52.508;13.422;2022-12-24T00:08:12;10.33;;;9.43;;
9392;SDS011;4736;52.508;13.422;2022-12-24T00:11:15;11.30;;;10.07;;
9392;SDS011;4736;52.508;13.422;2022-12-24T00:14:18;11.20;;;10.20;;
9392;SDS011;4736;52.508;13.422;2022-12-24T00:17:22;10.77;;;9.80;;
9392;SDS011;4736;52.508;13.422;2022-12-24T00:20:25;10.63;;;9.73;;
9392;SDS011;4736;52.508;13.422;2022-12-24T00:23:29;10.67;;;9.67;;
9392;SDS011;4736;52.508;13.422;2022-12-24T00:26:31;11.97;;;10.87;;
9392;SDS011;4736;52.508;13.422;2022-12-24T00:29:35;11.30;;;10.17;;
9392;SDS011;4736;52.508;13.422;2022-12-24T00:32:39;10.63;;;9.50;;
9392;SDS011;4736;52.508;13.422;2022-12-24T00:35:42;10.17;;;9.37;;
9392;SDS011;4736;52.508;13.422;2022-12-24T00:38:45;10.57;;;9.67;;
9392;SDS011;4736;52.508;13.422;2022-12-24T00:41:48;10.63;;;9.80;;
9392;SDS011;4736;52.508;13.422;2022-12-24T00:44:51;10.57;;;9.67;;
9392;SDS011;4736;52.508;13.422;2022-12-24T00:47:55;10.63;;;9.63;;
9392;SDS011;4736;52.508;13.422;2022-12-24T00:50:58;10.60;;;9.60;;
9392;SDS011;4736;52.508;13.422;2022-12-24T00:54:02;10.37;;;9.47;;
9392;SDS011;4736;52.508;13.422;2022-12-24T00:57:05;10.50;;;9.53;;
9392;SDS011;4736;52.508;13.422;2022-12-24T01:00:08;10.10;;;9.30;;
9392;SDS011;4736;52.508;13.422;2022-12-24T01:03:13;13.07;;;10.30;;
9392;SDS011;4736;52.508;13.422;2022-12-24T01:06:17;9.90;;;9.10;;
9392;SDS011;4736;52.508;13.422;2022-12-24T01:09:21;11.30;;;10.30;;
9392;SDS011;4736;52.508;13.422;2022-12-24T01:12:24;11.50;;;9.83;;
9392;SDS011;4736;52.508;13.422;2022-12-24T01:15:27;9.80;;;9.10;;
9392;SDS011;4736;52.508;13.422;2022-12-24T01:18:32;10.80;;;9.97;;
9392;SDS011;4736;52.508;13.422;2022-12-24T01:21:35;10.10;;;9.30;;
9392;SDS011;4736;52.508;13.422;2022-12-24T01:24:39;10.43;;;9.40;;
9392;SDS011;4736;52.508;13.422;2022-12-24T01:27:42;11.57;;;9.87;;
9392;SDS011;4736;52.508;13.422;2022-12-24T01:30:45;9.77;;;9.07;;
9392;SDS011;4736;52.508;13.422;2022-12-24T01:33:50;10.50;;;9.70;;
9392;SDS011;4736;52.508;13.422;2022-12-24T01:36:53;11.30;;;10.30;;
9392;SDS011;4736;52.508;13.422;2022-12-24T01:39:56;10.53;;;9.63;;
9392;SDS011;4736;52.508;13.422;2022-12-24T01:43:14;10.00;;;9.30;;
9392;SDS011;4736;52.508;13.422;2022-12-24T01:46:24;10.17;;;9.17;;
9392;SDS011;4736;52.508;13.422;2022-12-24T01:49:32;10.70;;;9.70;;
9392;SDS011;4736;52.508;13.422;2022-12-24T01:52:36;10.40;;;9.60;;
9392;SDS011;4736;52.508;13.422;2022-12-24T01:55:40;10.20;;;9.30;;
9392;SDS011;4736;52.508;13.422;2022-12-24T01:58:45;11.47;;;10.33;;
9392;SDS011;4736;52.508;13.422;2022-12-24T02:01:52;10.57;;;9.40;;
9392;SDS011;4736;52.508;13.422;2022-12-24T02:04:59;10.27;;;9.40;;
9392;SDS011;4736;52.508;13.422;2022-12-24T02:08:06;9.83;;;9.13;;
9392;SDS011;4736;52.508;13.422;2022-12-24T02:11:10;11.03;;;10.07;;
9392;SDS011;4736;52.508;13.422;2022-12-24T02:14:13;11.53;;;10.43;;
9392;SDS011;4736;52.508;13.422;2022-12-24T02:17:20;11.07;;;10.17;;
9392;SDS011;4736;52.508;13.422;2022-12-24T02:27:50;11.33;;;10.33;;
9392;SDS011;4736;52.508;13.422;2022-12-24T02:31:00;12.17;;;10.90;;
9392;SDS011;4736;52.508;13.422;2022-12-24T02:34:08;12.77;;;11.43;;
9392;SDS011;4736;52.508;13.422;2022-12-24T02:37:18;12.23;;;11.03;;
9392;SDS011;4736;52.508;13.422;2022-12-24T02:40:27;10.67;;;9.60;;
9392;SDS011;4736;52.508;13.422;2022-12-24T02:43:36;12.47;;;11.27;;
9392;SDS011;4736;52.508;13.422;2022-12-24T02:46:44;12.13;;;10.27;;
9392;SDS011;4736;52.508;13.422;2022-12-24T02:49:49;12.60;;;10.60;;
9392;SDS011;4736;52.508;13.422;2022-12-24T02:52:52;11.73;;;10.63;;
9392;SDS011;4736;52.508;13.422;2022-12-24T02:55:58;13.30;;;11.13;;
9392;SDS011;4736;52.508;13.422;2022-12-24T02:59:20;12.03;;;10.97;;
9392;SDS011;4736;52.508;13.422;2022-12-24T03:02:44;12.97;;;11.77;;
9392;SDS011;4736;52.508;13.422;2022-12-24T03:05:56;11.27;;;10.23;;
9392;SDS011;4736;52.508;13.422;2022-12-24T03:09:06;13.10;;;11.90;;
9392;SDS011;4736;52.508;13.422;2022-12-24T03:12:16;11.93;;;10.83;;
9392;SDS011;4736;52.508;13.422;2022-12-24T03:15:24;12.27;;;11.27;;
9392;SDS011;4736;52.508;13.422;2022-12-24T03:18:30;12.30;;;11.20;;
9392;SDS011;4736;52.508;13.422;2022-12-24T03:21:34;13.07;;;11.57;;
9392;SDS011;4736;52.508;13.422;2022-12-24T03:24:42;12.57;;;11.50;;
9392;SDS011;4736;52.508;13.422;2022-12-24T03:27:45;12.00;;;10.93;;
9392;SDS011;4736;52.508;13.422;2022-12-24T03:30:49;12.50;;;11.33;;
9392;SDS011;4736;52.508;13.422;2022-12-24T03:33:53;13.00;;;11.70;;
9392;SDS011;4736;52.508;13.422;2022-12-24T03:36:56;13.13;;;11.83;;
9392;SDS011;4736;52.508;13.422;2022-12-24T03:39:59;14.47;;;12.80;;
9392;SDS011;4736;52.508;13.422;2022-12-24T03:43:02;14.27;;;12.27;;
9392;SDS011;4736;52.508;13.422;2022-12-24T03:46:05;13.90;;;12.53;;
9392;SDS011;4736;52.508;13.422;2022-12-24T03:49:10;13.77;;;12.27;;
9392;SDS011;4736;52.508;13.422;2022-12-24T03:52:13;14.57;;;12.17;;
9392;SDS011;4736;52.508;13.422;2022-12-24T03:55:16;15.57;;;12.53;;
9392;SDS011;4736;52.508;13.422;2022-12-24T03:58:19;13.33;;;12.07;;
9392;SDS011;4736;52.508;13.422;2022-12-24T04:01:22;12.67;;;11.37;;
9392;SDS011;4736;52.508;13.422;2022-12-24T04:04:26;13.30;;;11.97;;
9392;SDS011;4736;52.508;13.422;2022-12-24T04:07:30;14.17;;;12.27;;
9392;SDS011;4736;52.508;13.422;2022-12-24T04:10:33;14.77;;;11.90;;
9392;SDS011;4736;52.508;13.422;2022-12-24T04:13:36;14.67;;;11.97;;
9392;SDS011;4736;52.508;13.422;2022-12-24T04:16:39;13.13;;;11.83;;
9392;SDS011;4736;52.508;13.422;2022-12-24T04:19:44;12.73;;;11.43;;
9392;SDS011;4736;52.508;13.422;2022-12-24T04:22:47;12.30;;;11.10;;
9392;SDS011;4736;52.508;13.422;2022-12-24T04:25:50;13.03;;;11.77;;
9392;SDS011;4736;52.508;13.422;2022-12-24T04:28:53;13.37;;;12.07;;
9392;SDS011;4736;52.508;13.422;2022-12-24T04:31:56;13.40;;;12.00;;
9392;SDS011;4736;52.508;13.422;2022-12-24T04:35:00;12.77;;;11.57;;
9392;SDS011;4736;52.508;13.422;2022-12-24T04:38:03;12.77;;;11.07;;
9392;SDS011;4736;52.508;13.422;2022-12-24T04:41:06;11.60;;;10.60;;
9392;SDS011;4736;52.508;13.422;2022-12-24T04:44:14;12.07;;;10.83;;
9392;SDS011;4736;52.508;13.422;2022-12-24T04:47:18;11.27;;;10.27;;
9392;SDS011;4736;52.508;13.422;2022-12-24T04:50:22;13.63;;;11.67;;
9392;SDS011;4736;52.508;13.422;2022-12-24T04:53:25;12.27;;;11.17;;
9392;SDS011;4736;52.508;13.422;2022-12-24T04:56:28;12.83;;;11.20;;
9392;SDS011;4736;52.508;13.422;2022-12-24T04:59:32;13.03;;;11.73;;
9392;SDS011;4736;52.508;13.422;2022-12-24T05:02:35;13.13;;;11.77;;
9392;SDS011;4736;52.508;13.422;2022-12-24T05:05:40;12.63;;;11.43;;
9392;SDS011;4736;52.508;13.422;2022-12-24T05:08:43;12.53;;;11.27;;
9392;SDS011;4736;52.508;13.422;2022-12-24T05:11:46;13.17;;;11.90;;
9392;SDS011;4736;52.508;13.422;2022-12-24T05:14:49;12.20;;;11.00;;
9392;SDS011;4736;52.508;13.422;2022-12-24T05:17:52;12.90;;;11.70;;
9392;SDS011;4736;52.508;13.422;2022-12-24T05:20:56;13.03;;;11.63;;
9392;SDS011;4736;52.508;13.422;2022-12-24T05:24:00;12.87;;;11.63;;
9392;SDS011;4736;52.508;13.422;2022-12-24T05:27:20;13.03;;;11.73;;
9392;SDS011;4736;52.508;13.422;2022-12-24T05:30:23;13.23;;;12.03;;
9392;SDS011;4736;52.508;13.422;2022-12-24T05:33:26;12.93;;;11.50;;
9392;SDS011;4736;52.508;13.422;2022-12-24T05:36:31;13.33;;;12.03;;
9392;SDS011;4736;52.508;13.422;2022-12-24T05:39:34;12.67;;;11.37;;
9392;SDS011;4736;52.508;13.422;2022-12-24T05:42:37;14.27;;;12.77;;
9392;SDS011;4736;52.508;13.422;2022-12-24T05:45:40;13.30;;;12.00;;
9392;SDS011;4736;52.508;13.422;2022-12-24T05:48:43;13.83;;;12.53;;
9392;SDS011;4736;52.508;13.422;2022-12-24T05:51:48;13.50;;;12.20;;
9392;SDS011;4736;52.508;13.422;2022-12-24T05:54:51;13.20;;;11.90;;
9392;SDS011;4736;52.508;13.422;2022-12-24T05:57:54;14.27;;;12.57;;
9392;SDS011;4736;52.508;13.422;2022-12-24T06:00:57;13.80;;;12.40;;
9392;SDS011;4736;52.508;13.422;2022-12-24T06:04:00;14.33;;;12.93;;
9392;SDS011;4736;52.508;13.422;2022-12-24T06:07:05;14.60;;;13.10;;
9392;SDS011;4736;52.508;13.422;2022-12-24T06:10:08;12.93;;;11.73;;
9392;SDS011;4736;52.508;13.422;2022-12-24T06:13:12;12.87;;;11.57;;
9392;SDS011;4736;52.508;13.422;2022-12-24T06:16:16;14.37;;;13.00;;
9392;SDS011;4736;52.508;13.422;2022-12-24T06:19:20;13.90;;;12.60;;
9392;SDS011;4736;52.508;13.422;2022-12-24T06:22:25;13.43;;;12.03;;
9392;SDS011;4736;52.508;13.422;2022-12-24T06:25:28;14.10;;;12.53;;
9392;SDS011;4736;52.508;13.422;2022-12-24T06:28:32;14.40;;;13.00;;
9392;SDS011;4736;52.508;13.422;2022-12-24T06:31:37;14.30;;;12.87;;
9392;SDS011;4736;52.508;13.422;2022-12-24T06:34:40;15.83;;;12.97;;
9392;SDS011;4736;52.508;13.422;2022-12-24T06:37:44;13.53;;;12.23;;
9392;SDS011;4736;52.508;13.422;2022-12-24T06:40:47;13.67;;;12.40;;
9392;SDS011;4736;52.508;13.422;2022-12-24T06:43:51;15.50;;;12.77;;
9392;SDS011;4736;52.508;13.422;2022-12-24T06:46:54;14.33;;;12.90;;
9392;SDS011;4736;52.508;13.422;2022-12-24T06:49:57;12.00;;;10.80;;
9392;SDS011;4736;52.508;13.422;2022-12-24T06:53:01;13.90;;;12.60;;
9392;SDS011;4736;52.508;13.422;2022-12-24T06:56:05;14.83;;;12.80;;
9392;SDS011;4736;52.508;13.422;2022-12-24T06:59:09;14.23;;;12.73;;
9392;SDS011;4736;52.508;13.422;2022-12-24T07:02:12;15.30;;;12.40;;
9392;SDS011;4736;52.508;13.422;2022-12-24T07:05:16;12.73;;;11.53;;
9392;SDS011;4736;52.508;13.422;2022-12-24T07:08:20;13.20;;;11.90;;
9392;SDS011;4736;52.508;13.422;2022-12-24T07:11:23;17.47;;;13.03;;
9392;SDS011;4736;52.508;13.422;2022-12-24T07:14:27;14.30;;;12.80;;
9392;SDS011;4736;52.508;13.422;2022-12-24T07:17:30;13.10;;;11.80;;
9392;SDS011;4736;52.508;13.422;2022-12-24T07:20:33;16.30;;;13.63;;
9392;SDS011;4736;52.508;13.422;2022-12-24T07:23:37;14.83;;;12.30;;
9392;SDS011;4736;52.508;13.422;2022-12-24T07:26:40;14.37;;;12.80;;
9392;SDS011;4736;52.508;13.422;2022-12-24T07:29:43;17.10;;;13.63;;
9392;SDS011;4736;52.508;13.422;2022-12-24T07:32:46;14.27;;;12.83;;
9392;SDS011;4736;52.508;13.422;2022-12-24T07:35:56;17.93;;;13.33;;
9392;SDS011;4736;52.508;13.422;2022-12-24T07:39:02;12.90;;;11.57;;
9392;SDS011;4736;52.508;13.422;2022-12-24T07:42:05;14.30;;;12.80;;
9392;SDS011;4736;52.508;13.422;2022-12-24T07:45:09;14.37;;;12.83;;
9392;SDS011;4736;52.508;13.422;2022-12-24T07:48:12;14.70;;;13.10;;
9392;SDS011;4736;52.508;13.422;2022-12-24T07:51:15;14.23;;;12.33;;
9392;SDS011;4736;52.508;13.422;2022-12-24T07:54:19;16.13;;;14.47;;
9392;SDS011;4736;52.508;13.422;2022-12-24T07:57:23;13.93;;;12.43;;
9392;SDS011;4736;52.508;13.422;2022-12-24T08:00:25;14.33;;;12.83;;
9392;SDS011;4736;52.508;13.422;2022-12-24T08:03:29;14.67;;;13.10;;
9392;SDS011;4736;52.508;13.422;2022-12-24T08:06:32;13.83;;;11.83;;
9392;SDS011;4736;52.508;13.422;2022-12-24T08:09:36;13.60;;;11.97;;
9392;SDS011;4736;52.508;13.422;2022-12-24T08:12:39;13.63;;;12.33;;
9392;SDS011;4736;52.508;13.422;2022-12-24T08:15:43;14.57;;;11.77;;
9392;SDS011;4736;52.508;13.422;2022-12-24T08:18:46;14.03;;;12.60;;
9392;SDS011;4736;52.508;13.422;2022-12-24T08:21:49;14.13;;;12.73;;
9392;SDS011;4736;52.508;13.422;2022-12-24T08:24:53;14.10;;;12.67;;
9392;SDS011;4736;52.508;13.422;2022-12-24T08:27:56;14.80;;;13.23;;
9392;SDS011;4736;52.508;13.422;2022-12-24T08:30:59;16.93;;;13.17;;
9392;SDS011;4736;52.508;13.422;2022-12-24T08:34:03;14.33;;;12.20;;
9392;SDS011;4736;52.508;13.422;2022-12-24T08:37:07;13.93;;;12.47;;
9392;SDS011;4736;52.508;13.422;2022-12-24T08:40:12;12.47;;;11.27;;
9392;SDS011;4736;52.508;13.422;2022-12-24T08:43:15;15.20;;;12.47;;
9392;SDS011;4736;52.508;13.422;2022-12-24T08:46:19;13.70;;;12.30;;
9392;SDS011;4736;52.508;13.422;2022-12-24T08:49:22;14.13;;;12.70;;
9392;SDS011;4736;52.508;13.422;2022-12-24T08:52:25;14.57;;;13.07;;
9392;SDS011;4736;52.508;13.422;2022-12-24T08:55:29;13.50;;;12.10;;
9392;SDS011;4736;52.508;13.422;2022-12-24T08:58:32;13.97;;;12.30;;
9392;SDS011;4736;52.508;13.422;2022-12-24T09:01:35;14.40;;;12.90;;
9392;SDS011;4736;52.508;13.422;2022-12-24T09:04:39;15.63;;;13.10;;
9392;SDS011;4736;52.508;13.422;2022-12-24T09:07:42;12.67;;;11.37;;
9392;SDS011;4736;52.508;13.422;2022-12-24T09:10:46;13.77;;;12.37;;
9392;SDS011;4736;52.508;13.422;2022-12-24T09:13:49;13.47;;;12.07;;
9392;SDS011;4736;52.508;13.422;2022-12-24T09:16:52;14.17;;;12.60;;
9392;SDS011;4736;52.508;13.422;2022-12-24T09:19:55;15.33;;;13.53;;
9392;SDS011;4736;52.508;13.422;2022-12-24T09:22:58;14.07;;;12.53;;
9392;SDS011;4736;52.508;13.422;2022-12-24T09:26:04;13.87;;;12.43;;
9392;SDS011;4736;52.508;13.422;2022-12-24T09:29:08;12.87;;;11.57;;
9392;SDS011;4736;52.508;13.422;2022-12-24T09:32:12;15.73;;;12.40;;
9392;SDS011;4736;52.508;13.422;2022-12-24T09:35:15;14.67;;;13.20;;
9392;SDS011;4736;52.508;13.422;2022-12-24T09:38:19;14.30;;;12.80;;
9392;SDS011;4736;52.508;13.422;2022-12-24T09:41:26;16.60;;;13.47;;
9392;SDS011;4736;52.508;13.422;2022-12-24T09:44:37;13.77;;;12.20;;
9392;SDS011;4736;52.508;13.422;2022-12-24T09:47:45;15.90;;;13.80;;
9392;SDS011;4736;52.508;13.422;2022-12-24T09:50:51;14.87;;;13.37;;
9392;SDS011;4736;52.508;13.422;2022-12-24T09:53:59;16.70;;;13.93;;
9392;SDS011;4736;52.508;13.422;2022-12-24T09:57:07;16.23;;;14.00;;
9392;SDS011;4736;52.508;13.422;2022-12-24T10:00:21;17.13;;;14.23;;
9392;SDS011;4736;52.508;13.422;2022-12-24T10:03:25;15.67;;;14.03;;
9392;SDS011;4736;52.508;13.422;2022-12-24T10:06:29;19.07;;;15.67;;
9392;SDS011;4736;52.508;13.422;2022-12-24T10:09:39;17.00;;;14.40;;
9392;SDS011;4736;52.508;13.422;2022-12-24T10:12:52;18.33;;;14.87;;
9392;SDS011;4736;52.508;13.422;2022-12-24T10:16:05;16.40;;;14.70;;
9392;SDS011;4736;52.508;13.422;2022-12-24T10:19:16;17.97;;;15.00;;
9392;SDS011;4736;52.508;13.422;2022-12-24T10:22:23;16.93;;;13.60;;
9392;SDS011;4736;52.508;13.422;2022-12-24T10:25:30;17.87;;;15.97;;
9392;SDS011;4736;52.508;13.422;2022-12-24T10:28:41;17.37;;;15.53;;
9392;SDS011;4736;52.508;13.422;2022-12-24T10:31:50;17.47;;;15.23;;
9392;SDS011;4736;52.508;13.422;2022-12-24T10:34:58;21.47;;;17.03;;
9392;SDS011;4736;52.508;13.422;2022-12-24T10:38:06;21.87;;;17.90;;
9392;SDS011;4736;52.508;13.422;2022-12-24T10:41:10;20.90;;;16.90;;
9392;SDS011;4736;52.508;13.422;2022-12-24T10:44:17;19.93;;;16.57;;
9392;SDS011;4736;52.508;13.422;2022-12-24T10:47:23;19.63;;;16.97;;
9392;SDS011;4736;52.508;13.422;2022-12-24T10:50:29;22.63;;;16.70;;
9392;SDS011;4736;52.508;13.422;2022-12-24T10:53:39;20.30;;;16.47;;
9392;SDS011;4736;52.508;13.422;2022-12-24T10:56:46;18.47;;;15.57;;
9392;SDS011;4736;52.508;13.422;2022-12-24T10:59:52;16.37;;;14.23;;
9392;SDS011;4736;52.508;13.422;2022-12-24T11:03:07;14.97;;;13.47;;
9392;SDS011;4736;52.508;13.422;2022-12-24T11:06:23;16.37;;;13.83;;
9392;SDS011;4736;52.508;13.422;2022-12-24T11:09:27;13.87;;;12.57;;
9392;SDS011;4736;52.508;13.422;2022-12-24T11:12:32;13.33;;;12.03;;
9392;SDS011;4736;52.508;13.422;2022-12-24T11:15:39;13.40;;;12.10;;
9392;SDS011;4736;52.508;13.422;2022-12-24T11:18:44;15.10;;;13.60;;
9392;SDS011;4736;52.508;13.422;2022-12-24T11:21:57;13.37;;;11.77;;
9392;SDS011;4736;52.508;13.422;2022-12-24T11:25:03;13.50;;;12.20;;
9392;SDS011;4736;52.508;13.422;2022-12-24T11:28:12;12.60;;;11.30;;
9392;SDS011;4736;52.508;13.422;2022-12-24T11:31:30;12.43;;;11.23;;
9392;SDS011;4736;52.508;13.422;2022-12-24T11:34:37;13.13;;;11.83;;
9392;SDS011;4736;52.508;13.422;2022-12-24T11:37:45;12.40;;;11.30;;
9392;SDS011;4736;52.508;13.422;2022-12-24T11:40:49;13.23;;;12.07;;
9392;SDS011;4736;52.508;13.422;2022-12-24T11:44:00;12.47;;;11.27;;
9392;SDS011;4736;52.508;13.422;2022-12-24T11:47:09;14.07;;;12.57;;
9392;SDS011;4736;52.508;13.422;2022-12-24T11:50:19;11.67;;;10.63;;
9392;SDS011;4736;52.508;13.422;2022-12-24T11:53:24;13.10;;;11.80;;
9392;SDS011;4736;52.508;13.422;2022-12-24T11:56:32;10.93;;;9.97;;
9392;SDS011;4736;52.508;13.422;2022-12-24T11:59:39;11.90;;;10.90;;
9392;SDS011;4736;52.508;13.422;2022-12-24T12:02:47;9.60;;;8.90;;
9392;SDS011;4736;52.508;13.422;2022-12-24T12:05:52;10.07;;;9.27;;
9392;SDS011;4736;52.508;13.422;2022-12-24T12:08:58;10.37;;;9.63;;
9392;SDS011;4736;52.508;13.422;2022-12-24T12:12:04;10.00;;;9.30;;
9392;SDS011;4736;52.508;13.422;2022-12-24T12:15:10;11.33;;;10.23;;
9392;SDS011;4736;52.508;13.422;2022-12-24T12:18:18;11.30;;;10.07;;
9392;SDS011;4736;52.508;13.422;2022-12-24T12:21:26;10.13;;;9.33;;
9392;SDS011;4736;52.508;13.422;2022-12-24T12:24:35;10.43;;;9.63;;
9392;SDS011;4736;52.508;13.422;2022-12-24T12:27:42;9.83;;;9.03;;
9392;SDS011;4736;52.508;13.422;2022-12-24T12:30:47;10.33;;;9.43;;
9392;SDS011;4736;52.508;13.422;2022-12-24T12:34:03;10.20;;;9.40;;
9392;SDS011;4736;52.508;13.422;2022-12-24T12:37:13;10.33;;;9.33;;
9392;SDS011;4736;52.508;13.422;2022-12-24T12:40:19;9.67;;;8.90;;
9392;SDS011;4736;52.508;13.422;2022-12-24T12:43:31;9.83;;;9.10;;
9392;SDS011;4736;52.508;13.422;2022-12-24T12:46:47;14.83;;;8.47;;
9392;SDS011;4736;52.508;13.422;2022-12-24T12:50:01;10.13;;;9.33;;
9392;SDS011;4736;52.508;13.422;2022-12-24T12:53:19;9.17;;;8.27;;
9392;SDS011;4736;52.508;13.422;2022-12-24T12:56:39;11.10;;;8.57;;
9392;SDS011;4736;52.508;13.422;2022-12-24T12:59:48;8.83;;;7.47;;
9392;SDS011;4736;52.508;13.422;2022-12-24T13:03:00;13.23;;;8.13;;
9392;SDS011;4736;52.508;13.422;2022-12-24T13:10:16;13.17;;;8.33;;
9392;SDS011;4736;52.508;13.422;2022-12-24T13:13:39;9.00;;;7.93;;
9392;SDS011;4736;52.508;13.422;2022-12-24T13:17:07;8.40;;;7.30;;
9392;SDS011;4736;52.508;13.422;2022-12-24T13:20:25;9.90;;;8.70;;
9392;SDS011;4736;52.508;13.422;2022-12-24T13:23:30;13.37;;;7.97;;
9392;SDS011;4736;52.508;13.422;2022-12-24T13:26:35;10.47;;;8.23;;
9392;SDS011;4736;52.508;13.422;2022-12-24T13:29:39;13.73;;;8.10;;
9392;SDS011;4736;52.508;13.422;2022-12-24T13:32:45;13.97;;;8.13;;
9392;SDS011;4736;52.508;13.422;2022-12-24T13:35:57;11.00;;;7.83;;
9392;SDS011;4736;52.508;13.422;2022-12-24T13:39:01;11.43;;;8.13;;
9392;SDS011;4736;52.508;13.422;2022-12-24T13:42:06;12.60;;;7.80;;
9392;SDS011;4736;52.508;13.422;2022-12-24T13:48:43;12.57;;;7.53;;
9392;SDS011;4736;52.508;13.422;2022-12-24T13:51:47;14.93;;;8.37;;
9392;SDS011;4736;52.508;13.422;2022-12-24T13:55:04;16.67;;;8.53;;
9392;SDS011;4736;52.508;13.422;2022-12-24T13:58:16;16.53;;;8.27;;
9392;SDS011;4736;52.508;13.422;2022-12-24T14:01:22;14.20;;;7.83;;
9392;SDS011;4736;52.508;13.422;2022-12-24T14:04:36;15.13;;;7.57;;
9392;SDS011;4736;52.508;13.422;2022-12-24T14:07:43;21.60;;;9.07;;
9392;SDS011;4736;52.508;13.422;2022-12-24T14:10:55;16.93;;;9.03;;
9392;SDS011;4736;52.508;13.422;2022-12-24T14:14:24;18.73;;;8.10;;
9392;SDS011;4736;52.508;13.422;2022-12-24T14:17:29;17.47;;;7.97;;
9392;SDS011;4736;52.508;13.422;2022-12-24T14:20:33;24.13;;;8.30;;
9392;SDS011;4736;52.508;13.422;2022-12-24T14:23:43;19.07;;;8.00;;
9392;SDS011;4736;52.508;13.422;2022-12-24T14:26:53;17.60;;;7.77;;
9392;SDS011;4736;52.508;13.422;2022-12-24T14:30:03;22.27;;;8.00;;
9392;SDS011;4736;52.508;13.422;2022-12-24T14:36:31;22.10;;;7.90;;
9392;SDS011;4736;52.508;13.422;2022-12-24T14:39:34;16.53;;;7.67;;
9392;SDS011;4736;52.508;13.422;2022-12-24T14:42:40;21.43;;;7.73;;
9392;SDS011;4736;52.508;13.422;2022-12-24T14:45:53;23.13;;;8.23;;
9392;SDS011;4736;52.508;13.422;2022-12-24T14:49:06;25.00;;;8.63;;
9392;SDS011;4736;52.508;13.422;2022-12-24T14:52:20;19.10;;;7.90;;
9392;SDS011;4736;52.508;13.422;2022-12-24T14:55:51;18.27;;;7.60;;
9392;SDS011;4736;52.508;13.422;2022-12-24T14:58:54;23.23;;;8.90;;
9392;SDS011;4736;52.508;13.422;2022-12-24T15:05:30;22.23;;;11.77;;
9392;SDS011;4736;52.508;13.422;2022-12-24T15:08:35;17.00;;;9.50;;
9392;SDS011;4736;52.508;13.422;2022-12-24T15:11:42;20.60;;;8.37;;
9392;SDS011;4736;52.508;13.422;2022-12-24T15:14:46;19.93;;;9.53;;
9392;SDS011;4736;52.508;13.422;2022-12-24T15:17:50;43.27;;;23.37;;
9392;SDS011;4736;52.508;13.422;2022-12-24T15:20:54;23.53;;;9.57;;
9392;SDS011;4736;52.508;13.422;2022-12-24T15:24:05;26.23;;;10.10;;
9392;SDS011;4736;52.508;13.422;2022-12-24T15:27:25;23.77;;;9.73;;
9392;SDS011;4736;52.508;13.422;2022-12-24T15:30:33;18.07;;;9.27;;
9392;SDS011;4736;52.508;13.422;2022-12-24T15:33:37;21.73;;;9.33;;
9392;SDS011;4736;52.508;13.422;2022-12-24T15:36:41;30.00;;;10.77;;
9392;SDS011;4736;52.508;13.422;2022-12-24T15:39:44;24.80;;;9.13;;
9392;SDS011;4736;52.508;13.422;2022-12-24T15:42:54;26.70;;;10.50;;
9392;SDS011;4736;52.508;13.422;2022-12-24T15:45:57;21.77;;;10.00;;
9392;SDS011;4736;52.508;13.422;2022-12-24T15:49:03;20.10;;;9.83;;
9392;SDS011;4736;52.508;13.422;2022-12-24T15:52:07;25.73;;;9.23;;
9392;SDS011;4736;52.508;13.422;2022-12-24T15:55:24;24.50;;;9.33;;
9392;SDS011;4736;52.508;13.422;2022-12-24T15:58:29;21.90;;;9.50;;
9392;SDS011;4736;52.508;13.422;2022-12-24T16:01:34;25.73;;;10.27;;
9392;SDS011;4736;52.508;13.422;2022-12-24T16:04:39;26.70;;;12.10;;
9392;SDS011;4736;52.508;13.422;2022-12-24T16:07:42;21.07;;;11.03;;
9392;SDS011;4736;52.508;13.422;2022-12-24T16:11:11;29.17;;;9.93;;
9392;SDS011;4736;52.508;13.422;2022-12-24T16:14:19;34.30;;;10.90;;
9392;SDS011;4736;52.508;13.422;2022-12-24T16:17:22;35.73;;;10.20;;
9392;SDS011;4736;52.508;13.422;2022-12-24T16:20:28;23.77;;;10.97;;
9392;SDS011;4736;52.508;13.422;2022-12-24T16:23:36;22.90;;;10.30;;
9392;SDS011;4736;52.508;13.422;2022-12-24T16:26:46;24.07;;;9.73;;
9392;SDS011;4736;52.508;13.422;2022-12-24T16:29:49;30.60;;;11.37;;
9392;SDS011;4736;52.508;13.422;2022-12-24T16:32:52;26.27;;;11.43;;
9392;SDS011;4736;52.508;13.422;2022-12-24T16:35:56;24.23;;;11.73;;
9392;SDS011;4736;52.508;13.422;2022-12-24T16:38:59;32.37;;;12.17;;
9392;SDS011;4736;52.508;13.422;2022-12-24T16:42:20;27.80;;;12.67;;
9392;SDS011;4736;52.508;13.422;2022-12-24T16:45:40;29.00;;;11.37;;
9392;SDS011;4736;52.508;13.422;2022-12-24T16:48:45;25.43;;;12.03;;
9392;SDS011;4736;52.508;13.422;2022-12-24T16:51:51;27.20;;;11.67;;
9392;SDS011;4736;52.508;13.422;2022-12-24T16:54:54;22.33;;;11.83;;
9392;SDS011;4736;52.508;13.422;2022-12-24T16:57:57;22.90;;;11.00;;
9392;SDS011;4736;52.508;13.422;2022-12-24T17:01:05;32.83;;;13.40;;
9392;SDS011;4736;52.508;13.422;2022-12-24T17:04:10;23.53;;;11.57;;
9392;SDS011;4736;52.508;13.422;2022-12-24T17:07:15;16.23;;;11.13;;
9392;SDS011;4736;52.508;13.422;2022-12-24T17:10:19;24.10;;;13.40;;
9392;SDS011;4736;52.508;13.422;2022-12-24T17:13:23;20.33;;;12.10;;
9392;SDS011;4736;52.508;13.422;2022-12-24T17:16:26;27.60;;;14.33;;
9392;SDS011;4736;52.508;13.422;2022-12-24T17:19:29;24.60;;;13.57;;
9392;SDS011;4736;52.508;13.422;2022-12-24T17:22:34;28.23;;;16.13;;
9392;SDS011;4736;52.508;13.422;2022-12-24T17:25:37;27.10;;;15.37;;
9392;SDS011;4736;52.508;13.422;2022-12-24T17:28:40;30.30;;;16.40;;
9392;SDS011;4736;52.508;13.422;2022-12-24T17:31:44;26.10;;;15.80;;
9392;SDS011;4736;52.508;13.422;2022-12-24T17:34:47;31.77;;;15.73;;
9392;SDS011;4736;52.508;13.422;2022-12-24T17:37:51;25.73;;;15.33;;
9392;SDS011;4736;52.508;13.422;2022-12-24T17:40:58;28.73;;;15.37;;
9392;SDS011;4736;52.508;13.422;2022-12-24T17:44:02;30.37;;;16.43;;
9392;SDS011;4736;52.508;13.422;2022-12-24T17:47:09;34.10;;;16.63;;
9392;SDS011;4736;52.508;13.422;2022-12-24T17:50:12;22.87;;;14.77;;
9392;SDS011;4736;52.508;13.422;2022-12-24T17:53:16;35.43;;;21.00;;
9392;SDS011;4736;52.508;13.422;2022-12-24T17:56:19;27.97;;;16.87;;
9392;SDS011;4736;52.508;13.422;2022-12-24T17:59:22;31.43;;;16.63;;
9392;SDS011;4736;52.508;13.422;2022-12-24T18:02:25;23.13;;;15.83;;
9392;SDS011;4736;52.508;13.422;2022-12-24T18:05:29;30.17;;;15.10;;
9392;SDS011;4736;52.508;13.422;2022-12-24T18:08:36;33.30;;;16.80;;
9392;SDS011;4736;52.508;13.422;2022-12-24T18:11:39;33.53;;;19.37;;
9392;SDS011;4736;52.508;13.422;2022-12-24T18:14:42;31.03;;;15.87;;
9392;SDS011;4736;52.508;13.422;2022-12-24T18:17:48;28.87;;;15.87;;
9392;SDS011;4736;52.508;13.422;2022-12-24T18:20:52;27.03;;;14.67;;
9392;SDS011;4736;52.508;13.422;2022-12-24T18:23:57;23.73;;;15.20;;
9392;SDS011;4736;52.508;13.422;2022-12-24T18:27:00;35.17;;;16.30;;
9392;SDS011;4736;52.508;13.422;2022-12-24T18:30:04;31.07;;;15.60;;
9392;SDS011;4736;52.508;13.422;2022-12-24T18:33:08;23.40;;;14.13;;
9392;SDS011;4736;52.508;13.422;2022-12-24T18:36:11;25.37;;;14.83;;
9392;SDS011;4736;52.508;13.422;2022-12-24T18:39:16;20.63;;;13.90;;
9392;SDS011;4736;52.508;13.422;2022-12-24T18:42:19;24.57;;;15.17;;
9392;SDS011;4736;52.508;13.422;2022-12-24T18:45:22;20.57;;;14.60;;
9392;SDS011;4736;52.508;13.422;2022-12-24T18:48:25;23.80;;;15.50;;
9392;SDS011;4736;52.508;13.422;2022-12-24T18:51:28;28.73;;;17.73;;